createdAt,value
2017-11-27T00:00:47.991Z,13.00
2017-11-27T00:03:20.584Z,13.75
2017-11-27T00:05:57.446Z,14.00
2017-11-27T00:08:32.737Z,13.75
2017-11-27T00:11:06.629Z,13.75
2017-11-27T00:13:40.219Z,11.00
2017-11-27T00:16:14.057Z,15.75
2017-11-27T00:18:48.611Z,11.00
2017-11-27T00:21:22.518Z,15.50
2017-11-27T00:23:55.606Z,15.50
2017-11-27T00:26:30.912Z,13.00
2017-11-27T00:29:04.302Z,13.25
2017-11-27T00:31:37.622Z,18.00
2017-11-27T00:34:10.481Z,11.25
2017-11-27T00:36:43.031Z,16.75
2017-11-27T00:39:15.525Z,14.75
2017-11-27T00:41:48.532Z,14.75
2017-11-27T00:44:21.445Z,17.50
2017-11-27T00:46:52.931Z,17.50
2017-11-27T00:49:24.785Z,15.50
2017-11-27T00:51:57.246Z,15.50
2017-11-27T00:54:30.854Z,16.50
2017-11-27T00:57:04.186Z,12.75
2017-11-27T00:59:41.075Z,18.75
2017-11-27T01:02:17.573Z,11.50
2017-11-27T01:04:51.468Z,13.75
2017-11-27T01:07:23.671Z,15.25
2017-11-27T01:09:56.163Z,15.25
2017-11-27T01:12:29.551Z,15.25
2017-11-27T01:15:04.426Z,16.00
2017-11-27T01:17:37.241Z,11.50
2017-11-27T01:20:09.718Z,13.00
2017-11-27T01:22:43.066Z,13.00
2017-11-27T01:25:15.205Z,13.25
2017-11-27T01:27:50.767Z,11.75
2017-11-27T01:30:26.729Z,14.75
2017-11-27T01:33:03.292Z,10.50
2017-11-27T01:35:43.377Z,15.00
2017-11-27T01:38:17.504Z,11.00
2017-11-27T01:40:52.583Z,11.25
2017-11-27T01:43:30.401Z,12.25
2017-11-27T01:46:06.610Z,11.75
2017-11-27T01:48:38.827Z,15.00
2017-11-27T01:51:12.477Z,11.00
2017-11-27T01:53:45.846Z,13.25
2017-11-27T01:56:20.870Z,13.00
2017-11-27T01:58:56.353Z,13.25
2017-11-27T02:01:33.964Z,10.50
2017-11-27T02:04:07.749Z,11.75
2017-11-27T02:06:41.585Z,10.75
2017-11-27T02:09:14.177Z,14.50
2017-11-27T02:11:47.423Z,13.00
2017-11-27T02:14:21.918Z,13.00
2017-11-27T02:16:57.280Z,10.50
2017-11-27T02:19:28.096Z,9.75
2017-11-27T02:22:00.132Z,13.00
2017-11-27T02:24:32.929Z,8.00
2017-11-27T02:27:05.608Z,11.00
2017-11-27T02:29:37.704Z,11.00
2017-11-27T02:32:12.127Z,10.00
2017-11-27T02:34:45.807Z,9.00
2017-11-27T02:37:18.699Z,9.50
2017-11-27T02:39:51.199Z,10.50
2017-11-27T02:42:23.998Z,8.00
2017-11-27T02:44:57.196Z,11.00
2017-11-27T02:47:32.198Z,7.00
2017-11-27T02:50:05.253Z,12.00
2017-11-27T02:52:40.024Z,9.00
2017-11-27T02:55:12.489Z,11.50
2017-11-27T02:57:44.982Z,8.25
2017-11-27T03:00:20.076Z,8.25
2017-11-27T03:02:52.878Z,8.50
2017-11-27T03:05:24.787Z,14.00
2017-11-27T03:07:57.686Z,8.00
2017-11-27T03:10:36.571Z,9.25
2017-11-27T03:13:09.788Z,6.50
2017-11-27T03:15:43.283Z,6.50
2017-11-27T03:18:15.384Z,7.50
2017-11-27T03:20:47.984Z,8.50
2017-11-27T03:23:20.977Z,6.00
2017-11-27T03:25:52.891Z,9.75
2017-11-27T03:28:26.195Z,9.50
2017-11-27T03:30:58.804Z,10.50
2017-11-27T03:33:31.208Z,8.75
2017-11-27T03:36:03.425Z,8.25
2017-11-27T03:38:44.627Z,8.25
2017-11-27T03:41:19.228Z,9.25
2017-11-27T03:43:52.542Z,7.50
2017-11-27T03:46:26.611Z,6.00
2017-11-27T03:48:58.740Z,8.50
2017-11-27T03:51:30.942Z,9.25
2017-11-27T03:54:03.844Z,8.00
2017-11-27T03:56:36.343Z,7.50
2017-11-27T03:59:08.232Z,9.00
2017-11-27T04:01:42.642Z,8.00
2017-11-27T04:04:15.530Z,8.50
2017-11-27T04:06:47.629Z,8.25
2017-11-27T04:09:19.924Z,9.00
2017-11-27T04:11:52.215Z,8.25
2017-11-27T04:14:25.019Z,7.50
2017-11-27T04:16:58.115Z,6.50
2017-11-27T04:19:31.321Z,8.75
2017-11-27T04:22:03.723Z,9.75
2017-11-27T04:24:36.025Z,7.00
2017-11-27T04:27:07.943Z,10.50
2017-11-27T04:29:43.011Z,8.00
2017-11-27T04:32:15.723Z,11.00
2017-11-27T04:34:50.022Z,9.00
2017-11-27T04:37:23.720Z,11.00
2017-11-27T04:39:56.802Z,8.00
2017-11-27T04:42:29.713Z,9.50
2017-11-27T04:45:03.705Z,6.50
2017-11-27T04:47:36.735Z,6.50
2017-11-27T04:50:10.242Z,11.75
2017-11-27T04:52:43.813Z,9.00
2017-11-27T04:55:16.136Z,11.25
2017-11-27T04:57:49.210Z,10.25
2017-11-27T05:00:24.508Z,10.00
2017-11-27T05:05:37.892Z,8.00
2017-11-27T05:08:14.131Z,8.50
2017-11-27T05:10:46.462Z,6.00
2017-11-27T05:13:19.275Z,6.00
2017-11-27T05:15:55.079Z,5.75
2017-11-27T05:18:30.145Z,4.50
2017-11-27T05:21:02.850Z,8.00
2017-11-27T05:26:25.384Z,8.00
2017-11-27T05:28:56.847Z,8.25
2017-11-27T05:31:39.280Z,5.75
2017-11-27T05:34:15.796Z,8.25
2017-11-27T05:36:46.482Z,6.00
2017-11-27T05:39:19.481Z,6.50
2017-11-27T05:41:52.172Z,6.50
2017-11-27T05:44:24.770Z,6.00
2017-11-27T05:46:58.270Z,7.00
2017-11-27T05:49:31.456Z,9.00
2017-11-27T05:52:04.873Z,8.00
2017-11-27T05:54:47.087Z,11.00
2017-11-27T05:57:20.356Z,9.50
2017-11-27T05:59:52.947Z,8.75
2017-11-27T06:02:26.975Z,13.00
2017-11-27T06:05:01.342Z,11.00
2017-11-27T06:07:34.826Z,6.00
2017-11-27T06:10:05.519Z,8.00
2017-11-27T06:12:36.499Z,6.00
2017-11-27T06:15:16.627Z,4.00
2017-11-27T06:17:50.545Z,6.50
2017-11-27T06:20:29.251Z,5.75
2017-11-27T06:23:00.217Z,5.00
2017-11-27T06:25:31.324Z,6.50
2017-11-27T06:28:04.350Z,3.50
2017-11-27T06:30:36.737Z,6.50
2017-11-27T06:33:08.749Z,6.00
2017-11-27T06:35:47.873Z,8.00
2017-11-27T06:38:21.832Z,4.75
2017-11-27T06:40:56.690Z,8.00
2017-11-27T06:43:31.963Z,6.00
2017-11-27T06:46:04.555Z,7.00
2017-11-27T06:48:37.165Z,6.00
2017-11-27T06:51:12.668Z,7.50
2017-11-27T06:53:46.001Z,4.75
2017-11-27T06:56:16.653Z,4.75
2017-11-27T06:58:54.710Z,7.00
2017-11-27T07:01:26.420Z,6.00
2017-11-27T07:04:00.167Z,6.00
2017-11-27T07:06:37.717Z,9.75
2017-11-27T07:09:12.821Z,11.00
2017-11-27T07:11:52.416Z,4.75
2017-11-27T07:14:26.068Z,8.00
2017-11-27T07:16:58.248Z,7.00
2017-11-27T07:19:33.737Z,5.75
2017-11-27T07:22:11.025Z,12.00
2017-11-27T07:24:43.842Z,6.00
2017-11-27T07:27:16.277Z,6.50
2017-11-27T07:29:47.911Z,5.50
2017-11-27T07:32:20.021Z,8.00
2017-11-27T07:34:52.204Z,6.00
2017-11-27T07:37:29.418Z,6.00
2017-11-27T07:40:11.623Z,6.00
2017-11-27T07:42:47.318Z,8.50
2017-11-27T07:45:25.765Z,8.00
2017-11-27T07:48:03.115Z,12.00
2017-11-27T07:50:39.413Z,8.00
2017-11-27T07:53:12.213Z,8.00
2017-11-27T07:55:47.202Z,11.50
2017-11-27T07:58:18.097Z,8.75
2017-11-27T08:00:49.743Z,8.00
2017-11-27T08:03:21.604Z,8.50
2017-11-27T08:05:54.230Z,8.50
2017-11-27T08:08:27.951Z,9.00
2017-11-27T08:11:00.843Z,8.00
2017-11-27T08:13:35.944Z,7.50
2017-11-27T08:16:08.440Z,10.50
2017-11-27T08:18:41.547Z,6.00
2017-11-27T08:21:14.781Z,6.00
2017-11-27T08:23:47.374Z,11.00
2017-11-27T08:26:21.413Z,8.00
2017-11-27T08:28:54.177Z,7.50
2017-11-27T08:31:27.759Z,8.25
2017-11-27T08:33:59.766Z,4.75
2017-11-27T08:36:31.943Z,4.00
2017-11-27T08:39:07.526Z,5.75
2017-11-27T08:41:40.436Z,6.50
2017-11-27T08:44:13.962Z,8.50
2017-11-27T08:46:47.935Z,6.00
2017-11-27T08:49:20.544Z,9.00
2017-11-27T08:51:56.003Z,8.00
2017-11-27T08:54:30.422Z,8.75
2017-11-27T08:57:02.777Z,8.00
2017-11-27T08:59:45.921Z,7.50
2017-11-27T09:02:18.222Z,7.00
2017-11-27T09:04:52.486Z,7.75
2017-11-27T09:07:28.935Z,7.75
2017-11-27T09:10:04.608Z,7.75
2017-11-27T09:12:38.906Z,6.25
2017-11-27T09:15:15.340Z,6.00
2017-11-27T09:17:50.208Z,6.00
2017-11-27T09:20:23.293Z,7.50
2017-11-27T09:22:57.842Z,6.00
2017-11-27T09:25:37.807Z,8.75
2017-11-27T09:28:14.202Z,7.25
2017-11-27T09:30:47.415Z,8.00
2017-11-27T09:33:18.627Z,9.00
2017-11-27T09:35:52.710Z,8.50
2017-11-27T09:38:26.116Z,11.00
2017-11-27T09:41:01.352Z,7.00
2017-11-27T09:43:37.637Z,8.25
2017-11-27T09:46:11.353Z,9.00
2017-11-27T09:48:45.654Z,7.75
2017-11-27T09:51:19.920Z,8.00
2017-11-27T09:53:55.884Z,7.75
2017-11-27T09:56:33.092Z,6.75
2017-11-27T09:59:07.475Z,7.75
2017-11-27T10:01:42.737Z,6.00
2017-11-27T10:04:17.392Z,9.00
2017-11-27T10:07:00.243Z,9.50
2017-11-27T10:09:39.783Z,9.00
2017-11-27T10:12:17.096Z,6.00
2017-11-27T10:14:50.285Z,5.00
2017-11-27T10:17:27.077Z,5.00
2017-11-27T10:20:03.367Z,6.50
2017-11-27T10:22:45.563Z,6.00
2017-11-27T10:25:21.564Z,7.75
2017-11-27T10:27:55.827Z,6.75
2017-11-27T10:30:33.181Z,12.00
2017-11-27T10:33:07.559Z,14.25
2017-11-27T10:35:42.614Z,6.25
2017-11-27T10:40:54.941Z,7.75
2017-11-27T10:43:34.700Z,7.75
2017-11-27T10:46:16.047Z,14.25
2017-11-27T10:48:51.978Z,7.75
2017-11-27T10:51:28.768Z,9.00
2017-11-27T10:54:01.810Z,12.25
2017-11-27T10:56:44.382Z,10.50
2017-11-27T10:59:24.953Z,9.00
2017-11-27T11:02:00.005Z,12.00
2017-11-27T11:04:39.123Z,15.75
2017-11-27T11:07:12.717Z,11.50
2017-11-27T11:09:47.108Z,10.00
2017-11-27T11:12:23.611Z,6.00
2017-11-27T11:14:59.216Z,4.00
2017-11-27T11:17:40.404Z,7.75
2017-11-27T11:20:14.219Z,6.25
2017-11-27T11:22:48.200Z,7.50
2017-11-27T11:25:21.325Z,7.00
2017-11-27T11:27:54.906Z,5.00
2017-11-27T11:30:27.857Z,7.75
2017-11-27T11:33:02.246Z,4.00
2017-11-27T11:38:26.593Z,3.75
2017-11-27T11:41:01.607Z,12.25
2017-11-27T11:43:39.440Z,6.00
2017-11-27T11:46:18.669Z,5.00
2017-11-27T11:48:55.946Z,4.50
2017-11-27T11:51:39.731Z,4.00
2017-11-27T11:54:13.804Z,11.75
2017-11-27T11:56:46.302Z,4.00
2017-11-27T11:59:19.501Z,6.25
2017-11-27T12:01:57.799Z,4.00
2017-11-27T12:04:32.346Z,9.00
2017-11-27T12:07:17.795Z,4.50
2017-11-27T12:09:51.996Z,9.00
2017-11-27T12:12:25.809Z,7.75
2017-11-27T12:14:57.669Z,7.00
2017-11-27T12:17:39.802Z,4.00
2017-11-27T12:20:16.300Z,4.00
2017-11-27T12:22:52.636Z,4.00
2017-11-27T12:25:28.450Z,3.50
2017-11-27T12:28:07.118Z,4.00
2017-11-27T12:30:43.352Z,7.50
2017-11-27T12:33:15.569Z,5.25
2017-11-27T12:35:47.935Z,4.50
2017-11-27T12:38:22.934Z,3.00
2017-11-27T12:40:57.829Z,4.00
2017-11-27T12:43:30.275Z,6.00
2017-11-27T12:46:04.400Z,6.00
2017-11-27T12:48:36.544Z,7.00
2017-11-27T12:51:11.556Z,9.50
2017-11-27T12:53:47.059Z,7.25
2017-11-27T12:56:19.566Z,7.00
2017-11-27T12:58:51.963Z,6.25
2017-11-27T13:01:27.358Z,4.00
2017-11-27T13:04:01.546Z,5.00
2017-11-27T13:06:34.755Z,3.25
2017-11-27T13:09:08.346Z,6.50
2017-11-27T13:11:43.869Z,4.00
2017-11-27T13:14:17.356Z,7.50
2017-11-27T13:16:51.647Z,4.00
2017-11-27T13:19:24.757Z,5.50
2017-11-27T13:21:59.459Z,6.75
2017-11-27T13:24:31.920Z,3.00
2017-11-27T13:27:08.056Z,4.00
2017-11-27T13:29:46.065Z,8.00
2017-11-27T13:32:20.272Z,3.25
2017-11-27T13:34:53.147Z,4.00
2017-11-27T13:37:26.076Z,3.25
2017-11-27T13:40:07.358Z,6.00
2017-11-27T13:42:42.032Z,4.00
2017-11-27T13:45:17.612Z,8.75
2017-11-27T13:47:50.529Z,9.00
2017-11-27T13:50:24.552Z,5.00
2017-11-27T13:52:59.769Z,3.00
2017-11-27T13:55:33.731Z,3.25
2017-11-27T13:58:22.024Z,4.00
2017-11-27T14:00:57.833Z,4.00
2017-11-27T14:03:31.630Z,5.00
2017-11-27T14:06:05.332Z,5.50
2017-11-27T14:08:37.512Z,6.75
2017-11-27T14:11:17.518Z,4.00
2017-11-27T14:13:51.840Z,6.75
2017-11-27T14:16:25.655Z,13.00
2017-11-27T14:18:58.066Z,6.00
2017-11-27T14:21:32.170Z,5.00
2017-11-27T14:24:04.676Z,4.50
2017-11-27T14:26:37.580Z,13.25
2017-11-27T14:29:10.694Z,4.00
2017-11-27T14:31:44.329Z,4.00
2017-11-27T14:34:20.489Z,4.00
2017-11-27T14:36:56.005Z,6.00
2017-11-27T14:39:28.489Z,4.00
2017-11-27T14:42:00.590Z,5.50
2017-11-27T14:44:31.992Z,4.00
2017-11-27T14:47:04.985Z,10.00
2017-11-27T14:49:38.514Z,4.00
2017-11-27T14:52:14.972Z,6.00
2017-11-27T14:54:47.826Z,6.50
2017-11-27T14:57:21.271Z,3.50
2017-11-27T14:59:53.771Z,7.00
2017-11-27T15:02:27.366Z,7.00
2017-11-27T15:05:01.617Z,6.00
2017-11-27T15:07:36.263Z,4.00
2017-11-27T15:10:24.764Z,12.25
2017-11-27T15:12:58.775Z,6.50
2017-11-27T15:15:33.557Z,4.00
2017-11-27T15:18:11.360Z,4.00
2017-11-27T15:20:50.168Z,6.25
2017-11-27T15:23:24.464Z,4.00
2017-11-27T15:26:02.469Z,3.25
2017-11-27T15:28:38.538Z,4.00
2017-11-27T15:31:11.477Z,6.00
2017-11-27T15:33:52.673Z,3.00
2017-11-27T15:36:26.370Z,6.00
2017-11-27T15:39:00.185Z,6.50
2017-11-27T15:41:34.962Z,7.00
2017-11-27T15:44:08.595Z,5.50
2017-11-27T15:46:49.478Z,3.75
2017-11-27T15:49:23.183Z,7.00
2017-11-27T15:51:57.169Z,6.00
2017-11-27T15:54:30.847Z,4.00
2017-11-27T15:57:06.668Z,6.00
2017-11-27T15:59:44.686Z,5.50
2017-11-27T16:02:21.561Z,6.00
2017-11-27T16:04:59.620Z,8.25
2017-11-27T16:07:39.409Z,4.00
2017-11-27T16:10:11.711Z,4.00
2017-11-27T16:12:46.100Z,5.00
2017-11-27T16:15:19.804Z,6.25
2017-11-27T16:17:53.106Z,5.50
2017-11-27T16:20:25.611Z,9.00
2017-11-27T16:23:02.108Z,7.75
2017-11-27T16:25:33.448Z,10.75
2017-11-27T16:28:04.171Z,10.00
2017-11-27T16:30:38.306Z,7.00
2017-11-27T16:33:13.206Z,9.00
2017-11-27T16:35:45.198Z,8.75
2017-11-27T16:38:17.601Z,10.00
2017-11-27T16:43:34.911Z,8.00
2017-11-27T16:46:11.482Z,4.00
2017-11-27T16:48:45.309Z,7.50
2017-11-27T16:51:20.417Z,6.00
2017-11-27T16:53:56.802Z,5.00
2017-11-27T16:56:31.301Z,6.75
2017-11-27T16:59:03.894Z,6.00
2017-11-27T17:01:40.006Z,12.00
2017-11-27T17:04:13.717Z,8.25
2017-11-27T17:06:48.243Z,6.75
2017-11-27T17:09:27.626Z,6.50
2017-11-27T17:12:00.631Z,17.25
2017-11-27T17:14:35.735Z,14.50
2017-11-27T17:17:10.246Z,6.75
2017-11-27T17:19:44.036Z,6.75
2017-11-27T17:22:16.753Z,9.00
2017-11-27T17:24:51.493Z,7.00
2017-11-27T17:27:30.002Z,5.50
2017-11-27T17:30:05.866Z,7.00
2017-11-27T17:32:45.697Z,6.00
2017-11-27T17:35:20.074Z,10.50
2017-11-27T17:37:59.546Z,7.00
2017-11-27T17:40:50.709Z,17.75
2017-11-27T17:43:27.900Z,7.00
2017-11-27T17:46:07.046Z,7.00
2017-11-27T17:49:00.567Z,7.50
2017-11-27T17:51:35.310Z,12.50
2017-11-27T17:54:09.922Z,21.25
2017-11-27T17:56:43.915Z,7.00
2017-11-27T17:59:23.349Z,9.00
2017-11-27T18:02:02.453Z,8.00
2017-11-27T18:04:35.225Z,7.00
2017-11-27T18:07:10.246Z,12.00
2017-11-27T18:09:47.245Z,14.50
2017-11-27T18:12:21.338Z,8.50
2017-11-27T18:14:56.796Z,12.00
2017-11-27T18:17:31.373Z,11.00
2017-11-27T18:20:08.267Z,10.00
2017-11-27T18:22:43.240Z,15.50
2017-11-27T18:25:16.132Z,13.00
2017-11-27T18:27:51.433Z,16.25
2017-11-27T18:30:24.543Z,14.75
2017-11-27T18:32:58.643Z,12.00
2017-11-27T18:35:32.516Z,14.50
2017-11-27T18:38:07.827Z,16.00
2017-11-27T18:40:42.132Z,14.50
2017-11-27T18:43:20.317Z,15.75
2017-11-27T18:45:59.637Z,16.00
2017-11-27T18:48:33.452Z,16.00
2017-11-27T18:51:07.281Z,15.00
2017-11-27T18:53:42.796Z,13.50
2017-11-27T18:56:46.496Z,14.50
2017-11-27T18:59:29.604Z,19.25
2017-11-27T19:02:09.045Z,26.00
2017-11-27T19:04:45.613Z,21.25
2017-11-27T19:07:24.664Z,20.50
2017-11-27T19:09:59.297Z,15.75
2017-11-27T19:12:33.938Z,22.25
2017-11-27T19:15:19.801Z,23.50
2017-11-27T19:17:54.943Z,14.25
2017-11-27T19:20:30.666Z,15.75
2017-11-27T19:23:04.133Z,24.00
2017-11-27T19:25:38.002Z,18.25
2017-11-27T19:28:15.981Z,21.50
2017-11-27T19:30:51.581Z,24.50
2017-11-27T19:33:24.171Z,17.75
2017-11-27T19:35:58.184Z,15.50
2017-11-27T19:38:32.848Z,14.50
2017-11-27T19:41:07.941Z,12.00
2017-11-27T19:43:48.013Z,15.25
2017-11-27T19:46:25.838Z,14.25
2017-11-27T19:49:02.605Z,14.00
2017-11-27T19:51:36.926Z,12.75
2017-11-27T19:54:15.955Z,15.75
2017-11-27T19:56:51.893Z,13.00
2017-11-27T19:59:24.693Z,15.00
2017-11-27T20:01:57.397Z,15.50
2017-11-27T20:04:29.601Z,15.25
2017-11-27T20:07:03.414Z,16.75
2017-11-27T20:09:44.600Z,15.75
2017-11-27T20:12:19.212Z,13.00
2017-11-27T20:14:51.045Z,18.25
2017-11-27T20:17:28.364Z,13.75
2017-11-27T20:20:03.020Z,16.25
2017-11-27T20:22:41.328Z,14.75
2017-11-27T20:25:20.349Z,15.50
2017-11-27T20:27:53.744Z,11.50
2017-11-27T20:30:31.995Z,13.00
2017-11-27T20:33:07.125Z,13.50
2017-11-27T20:35:42.747Z,8.75
2017-11-27T20:38:16.706Z,10.25
2017-11-27T20:40:56.196Z,14.25
2017-11-27T20:43:29.632Z,10.50
2017-11-27T20:46:21.897Z,6.25
2017-11-27T20:48:56.725Z,14.00
2017-11-27T20:51:32.104Z,12.00
2017-11-27T20:54:09.203Z,7.00
2017-11-27T20:56:42.697Z,8.00
2017-11-27T20:59:22.307Z,13.75
2017-11-27T21:02:02.393Z,8.75
2017-11-27T21:04:35.392Z,12.00
2017-11-27T21:07:07.797Z,12.50
2017-11-27T21:09:44.984Z,12.75
2017-11-27T21:12:16.414Z,8.00
2017-11-27T21:17:28.501Z,10.00
2017-11-27T21:20:04.232Z,9.50
2017-11-27T21:22:38.416Z,10.00
2017-11-27T21:25:14.902Z,8.75
2017-11-27T21:27:48.265Z,11.75
2017-11-27T21:30:22.492Z,9.00
2017-11-27T21:32:55.745Z,10.00
2017-11-27T21:35:28.423Z,8.00
2017-11-27T21:38:00.985Z,6.25
2017-11-27T21:40:34.443Z,3.25
2017-11-27T21:43:07.632Z,3.75
2017-11-27T21:45:54.847Z,1.50
2017-11-27T21:48:25.977Z,1.50
2017-11-27T21:51:00.540Z,3.00
2017-11-27T21:53:35.657Z,3.50
2017-11-27T21:56:12.255Z,3.00
2017-11-27T21:58:46.657Z,3.00
2017-11-27T22:01:18.599Z,3.00
2017-11-27T22:03:49.828Z,2.50
2017-11-27T22:06:20.835Z,1.00
2017-11-27T22:08:53.354Z,2.50
2017-11-27T22:11:24.841Z,3.00
2017-11-27T22:13:58.537Z,3.00
2017-11-27T22:16:33.684Z,3.75
2017-11-27T22:19:05.985Z,6.00
2017-11-27T22:21:37.705Z,5.50
2017-11-27T22:24:10.523Z,4.00
2017-11-27T22:26:44.618Z,5.50
2017-11-27T22:29:22.733Z,3.25
2017-11-27T22:31:55.910Z,4.50
2017-11-27T22:34:28.568Z,7.75
2017-11-27T22:37:00.091Z,6.00
2017-11-27T22:39:32.058Z,6.00
2017-11-27T22:42:04.212Z,7.00
2017-11-27T22:44:39.007Z,6.00
2017-11-27T22:47:17.398Z,6.25
2017-11-27T22:49:49.803Z,6.75
2017-11-27T22:52:26.619Z,4.00
2017-11-27T22:55:02.798Z,6.00
2017-11-27T22:57:35.817Z,4.00
2017-11-27T23:00:14.865Z,4.00
2017-11-27T23:02:55.494Z,4.00
2017-11-27T23:05:28.560Z,3.00
2017-11-27T23:08:01.874Z,3.00
2017-11-27T23:10:33.511Z,3.25
2017-11-27T23:13:04.792Z,3.00
2017-11-27T23:15:38.656Z,4.50
2017-11-27T23:18:16.062Z,4.50
2017-11-27T23:20:52.040Z,6.75
2017-11-27T23:23:24.054Z,6.00
2017-11-27T23:26:00.676Z,6.00
2017-11-27T23:28:33.076Z,10.50
2017-11-27T23:31:05.426Z,3.75
2017-11-27T23:33:39.725Z,10.50
2017-11-27T23:36:14.853Z,6.00
2017-11-27T23:38:49.925Z,13.50
2017-11-27T23:41:25.699Z,15.50
2017-11-27T23:43:56.886Z,11.00
2017-11-27T23:46:28.747Z,9.75
2017-11-27T23:49:02.464Z,6.00
2017-11-27T23:51:37.820Z,7.00
2017-11-27T23:54:12.341Z,4.00
2017-11-27T23:59:34.387Z,4.00
